createdAt,value
2023-08-26T00:01:57.899Z,96641.80
2023-08-26T00:04:25.847Z,96642.00
2023-08-26T00:06:53.853Z,96639.00
2023-08-26T00:09:22.102Z,96632.00
2023-08-26T00:11:50.650Z,96625.40
2023-08-26T00:14:18.853Z,96632.00
2023-08-26T00:16:47.001Z,96627.60
2023-08-26T00:19:17.725Z,96623.40
2023-08-26T00:21:45.857Z,96623.80
2023-08-26T00:24:14.121Z,96625.00
2023-08-26T00:26:42.153Z,96628.40
2023-08-26T00:29:10.207Z,96631.00
2023-08-26T00:31:39.110Z,96629.60
2023-08-26T00:34:07.354Z,96625.40
2023-08-26T00:36:35.605Z,96619.20
2023-08-26T00:39:03.776Z,96622.40
2023-08-26T00:41:32.279Z,96619.80
2023-08-26T00:44:00.429Z,96620.80
2023-08-26T00:46:28.485Z,96624.00
2023-08-26T00:48:56.499Z,96622.20
2023-08-26T00:51:24.741Z,96625.60
2023-08-26T00:53:52.808Z,96622.00
2023-08-26T00:56:21.937Z,96622.00
2023-08-26T00:58:50.131Z,96620.60
2023-08-26T01:01:19.887Z,96625.20
2023-08-26T01:03:47.963Z,96626.20
2023-08-26T01:06:16.043Z,96628.60
2023-08-26T01:08:45.201Z,96628.80
2023-08-26T01:11:35.682Z,96624.60
2023-08-26T01:14:24.273Z,96624.20
2023-08-26T01:16:52.536Z,96629.00
2023-08-26T01:19:27.690Z,96629.80
2023-08-26T01:21:56.428Z,96618.00
2023-08-26T01:24:25.617Z,96622.80
2023-08-26T01:26:54.710Z,96618.20
2023-08-26T01:29:22.920Z,96620.80
2023-08-26T01:32:16.324Z,96623.80
2023-08-26T01:34:52.112Z,96623.00
2023-08-26T01:37:20.357Z,96619.80
2023-08-26T01:39:49.590Z,96610.00
2023-08-26T01:42:19.699Z,96612.20
2023-08-26T01:44:48.036Z,96615.40
2023-08-26T01:47:16.647Z,96615.60
2023-08-26T01:49:47.928Z,96609.00
2023-08-26T01:52:15.964Z,96608.40
2023-08-26T01:54:44.513Z,96605.80
2023-08-26T01:57:12.520Z,96606.00
2023-08-26T01:59:40.803Z,96602.60
2023-08-26T02:02:08.887Z,96600.60
2023-08-26T02:04:38.673Z,96595.00
2023-08-26T02:07:06.860Z,96595.40
2023-08-26T02:09:37.289Z,96594.40
2023-08-26T02:12:05.451Z,96589.40
2023-08-26T02:14:33.466Z,96589.60
2023-08-26T02:17:01.632Z,96593.00
2023-08-26T02:19:30.742Z,96591.60
2023-08-26T02:21:58.913Z,96586.00
2023-08-26T02:24:26.974Z,96584.80
2023-08-26T02:26:55.192Z,96586.40
2023-08-26T02:29:23.353Z,96585.00
2023-08-26T02:31:51.347Z,96580.80
2023-08-26T02:34:20.022Z,96574.60
2023-08-26T02:36:48.052Z,96567.00
2023-08-26T02:39:17.288Z,96570.00
2023-08-26T02:41:45.340Z,96571.20
2023-08-26T02:44:13.306Z,96569.00
2023-08-26T02:46:41.513Z,96573.20
2023-08-26T02:49:11.135Z,96569.80
2023-08-26T02:51:39.190Z,96571.60
2023-08-26T02:54:07.211Z,96568.40
2023-08-26T02:56:35.213Z,96567.00
2023-08-26T02:59:03.245Z,96563.60
2023-08-26T03:01:31.984Z,96561.80
2023-08-26T03:04:00.216Z,96565.60
2023-08-26T03:06:29.326Z,96571.40
2023-08-26T03:08:57.437Z,96574.60
2023-08-26T03:11:27.002Z,96574.20
2023-08-26T03:13:55.070Z,96581.60
2023-08-26T03:16:23.210Z,96582.80
2023-08-26T03:18:51.530Z,96583.00
2023-08-26T03:21:19.517Z,96588.20
2023-08-26T03:23:47.576Z,96588.60
2023-08-26T03:26:15.603Z,96589.80
2023-08-26T03:28:43.786Z,96595.20
2023-08-26T03:31:13.298Z,96593.80
2023-08-26T03:33:46.184Z,96591.00
2023-08-26T03:36:14.498Z,96586.60
2023-08-26T03:38:44.158Z,96587.80
2023-08-26T03:41:12.149Z,96584.40
2023-08-26T03:43:41.333Z,96583.40
2023-08-26T03:46:10.124Z,96579.00
2023-08-26T03:48:38.311Z,96577.80
2023-08-26T03:51:06.370Z,96582.20
2023-08-26T03:53:36.301Z,96580.80
2023-08-26T03:56:05.014Z,96584.60
2023-08-26T03:58:33.255Z,96583.20
2023-08-26T04:01:06.074Z,96585.40
2023-08-26T04:03:34.568Z,96585.20
2023-08-26T04:06:04.483Z,96588.40
2023-08-26T04:08:33.458Z,96589.60
2023-08-26T04:11:02.241Z,96587.40
2023-08-26T04:13:30.589Z,96586.00
2023-08-26T04:15:58.823Z,96588.60
2023-08-26T04:18:27.064Z,96589.80
2023-08-26T04:20:55.226Z,96590.20
2023-08-26T04:23:23.804Z,96585.60
2023-08-26T04:25:53.404Z,96584.80
2023-08-26T04:28:21.493Z,96585.40
2023-08-26T04:30:50.380Z,96584.60
2023-08-26T04:33:18.474Z,96588.00
2023-08-26T04:35:46.523Z,96589.60
2023-08-26T04:38:14.680Z,96587.00
2023-08-26T04:40:43.192Z,96592.60
2023-08-26T04:43:12.104Z,96590.80
2023-08-26T04:45:40.701Z,96585.80
2023-08-26T04:48:09.209Z,96584.00
2023-08-26T04:50:37.967Z,96576.40
2023-08-26T04:53:06.111Z,96578.80
2023-08-26T04:55:34.556Z,96577.80
2023-08-26T04:58:04.656Z,96589.00
2023-08-26T05:00:33.063Z,96593.80
2023-08-26T05:03:01.540Z,96593.40
2023-08-26T05:05:29.816Z,96593.00
2023-08-26T05:07:58.240Z,96589.40
2023-08-26T05:10:26.785Z,96585.00
2023-08-26T05:12:55.086Z,96587.60
2023-08-26T05:15:23.581Z,96585.00
2023-08-26T05:17:51.913Z,96585.20
2023-08-26T05:20:21.730Z,96589.20
2023-08-26T05:22:50.111Z,96589.40
2023-08-26T05:25:19.992Z,96591.20
2023-08-26T05:27:48.885Z,96592.80
2023-08-26T05:30:19.963Z,96593.20
2023-08-26T05:32:55.662Z,96590.80
2023-08-26T05:35:26.550Z,96583.20
2023-08-26T05:37:55.128Z,96585.60
2023-08-26T05:40:28.334Z,96588.60
2023-08-26T05:42:57.385Z,96582.40
2023-08-26T05:45:26.417Z,96586.00
2023-08-26T05:47:55.991Z,96585.60
2023-08-26T05:50:24.732Z,96590.60
2023-08-26T05:52:53.501Z,96584.40
2023-08-26T05:55:22.494Z,96584.20
2023-08-26T05:57:50.687Z,96586.80
2023-08-26T06:00:19.057Z,96591.20
2023-08-26T06:02:51.081Z,96596.20
2023-08-26T06:05:19.514Z,96598.20
2023-08-26T06:07:51.760Z,96600.60
2023-08-26T06:10:19.984Z,96605.40
2023-08-26T06:12:48.057Z,96607.60
2023-08-26T06:15:16.800Z,96615.60
2023-08-26T06:17:45.016Z,96619.40
2023-08-26T06:20:16.754Z,96621.40
2023-08-26T06:22:46.688Z,96622.20
2023-08-26T06:25:14.850Z,96628.20
2023-08-26T06:27:43.137Z,96630.60
2023-08-26T06:30:11.818Z,96637.60
2023-08-26T06:32:39.888Z,96637.80
2023-08-26T06:35:08.536Z,96642.40
2023-08-26T06:37:36.933Z,96646.20
2023-08-26T06:40:06.408Z,96645.20
2023-08-26T06:42:34.502Z,96647.00
2023-08-26T06:45:04.159Z,96647.00
2023-08-26T06:47:32.344Z,96647.20
2023-08-26T06:50:00.973Z,96647.40
2023-08-26T06:52:29.166Z,96653.80
2023-08-26T06:54:58.129Z,96653.60
2023-08-26T06:57:26.182Z,96654.60
2023-08-26T06:59:54.160Z,96654.20
2023-08-26T07:02:22.464Z,96656.60
2023-08-26T07:04:50.622Z,96656.60
2023-08-26T07:07:18.725Z,96653.40
2023-08-26T07:09:46.670Z,96656.40
2023-08-26T07:12:15.860Z,96664.40
2023-08-26T07:14:44.033Z,96665.60
2023-08-26T07:17:13.428Z,96664.80
2023-08-26T07:19:41.610Z,96663.40
2023-08-26T07:22:09.890Z,96672.60
2023-08-26T07:24:38.502Z,96673.80
2023-08-26T07:27:06.948Z,96672.40
2023-08-26T07:29:35.389Z,96679.20
2023-08-26T07:32:03.806Z,96680.80
2023-08-26T07:34:32.597Z,96679.40
2023-08-26T07:37:00.619Z,96678.80
2023-08-26T07:39:30.807Z,96675.40
2023-08-26T07:41:58.896Z,96670.60
2023-08-26T07:44:27.044Z,96673.00
2023-08-26T07:46:56.563Z,96675.20
2023-08-26T07:49:24.993Z,96675.80
2023-08-26T07:51:53.114Z,96680.80
2023-08-26T07:54:21.273Z,96683.60
2023-08-26T07:56:49.542Z,96677.60
2023-08-26T07:59:17.931Z,96676.20
2023-08-26T08:01:45.936Z,96677.20
2023-08-26T08:04:13.934Z,96675.60
2023-08-26T08:06:41.876Z,96677.80
2023-08-26T08:09:10.541Z,96681.40
2023-08-26T08:11:38.714Z,96675.40
2023-08-26T08:14:07.005Z,96674.60
2023-08-26T08:16:35.153Z,96677.80
2023-08-26T08:19:03.648Z,96673.20
2023-08-26T08:21:31.590Z,96674.40
2023-08-26T08:24:01.326Z,96676.60
2023-08-26T08:26:33.654Z,96670.80
2023-08-26T08:29:02.569Z,96670.20
2023-08-26T08:31:30.649Z,96668.20
2023-08-26T08:33:58.692Z,96671.00
2023-08-26T08:36:26.663Z,96675.80
2023-08-26T08:38:55.070Z,96673.00
2023-08-26T08:41:23.363Z,96675.00
2023-08-26T08:43:52.606Z,96673.20
2023-08-26T08:46:20.765Z,96671.60
2023-08-26T08:48:48.825Z,96670.60
2023-08-26T08:51:17.346Z,96669.20
2023-08-26T08:53:51.123Z,96668.40
2023-08-26T08:56:19.262Z,96666.80
2023-08-26T08:58:52.653Z,96668.20
2023-08-26T09:01:21.847Z,96664.60
2023-08-26T09:03:49.962Z,96662.80
2023-08-26T09:06:21.198Z,96663.60
2023-08-26T09:08:49.753Z,96664.60
2023-08-26T09:11:17.968Z,96666.40
2023-08-26T09:13:46.709Z,96668.00
2023-08-26T09:16:14.793Z,96668.20
2023-08-26T09:18:43.092Z,96664.20
2023-08-26T09:21:11.703Z,96661.20
2023-08-26T09:23:44.557Z,96662.40
2023-08-26T09:26:12.639Z,96666.00
2023-08-26T09:28:47.808Z,96659.40
2023-08-26T09:31:15.839Z,96664.60
2023-08-26T09:33:44.057Z,96663.00
2023-08-26T09:38:45.592Z,96662.00
2023-08-26T09:41:13.990Z,96661.20
2023-08-26T09:43:43.746Z,96658.80
2023-08-26T09:46:18.472Z,96659.60
2023-08-26T09:48:50.938Z,96663.20
2023-08-26T09:51:28.727Z,96664.60
2023-08-26T09:53:57.330Z,96662.60
2023-08-26T09:56:29.110Z,96659.60
2023-08-26T09:58:57.596Z,96659.80
2023-08-26T10:01:25.827Z,96655.20
2023-08-26T10:03:55.445Z,96653.60
2023-08-26T10:06:26.819Z,96652.20
2023-08-26T10:08:56.999Z,96649.60
2023-08-26T10:11:25.223Z,96646.40
2023-08-26T10:13:53.589Z,96650.60
2023-08-26T10:16:34.010Z,96644.60
2023-08-26T10:19:05.186Z,96643.40
2023-08-26T10:21:33.345Z,96640.00
2023-08-26T10:24:01.651Z,96639.80
2023-08-26T10:26:29.677Z,96643.40
2023-08-26T10:28:57.956Z,96639.00
2023-08-26T10:31:34.410Z,96644.60
2023-08-26T10:34:08.258Z,96642.60
2023-08-26T10:36:41.039Z,96642.40
2023-08-26T10:39:17.088Z,96639.80
2023-08-26T10:42:15.601Z,96634.40
2023-08-26T10:44:58.809Z,96633.60
2023-08-26T10:47:46.003Z,96628.40
2023-08-26T10:50:23.683Z,96628.40
2023-08-26T10:53:17.136Z,96629.40
2023-08-26T10:55:48.844Z,96623.80
2023-08-26T10:58:20.039Z,96619.80
2023-08-26T11:00:49.813Z,96619.20
2023-08-26T11:03:18.969Z,96623.60
2023-08-26T11:05:48.375Z,96625.40
2023-08-26T11:08:16.517Z,96626.60
2023-08-26T11:10:44.536Z,96619.00
2023-08-26T11:13:12.552Z,96618.00
2023-08-26T11:15:43.216Z,96620.80
2023-08-26T11:18:12.193Z,96617.60
2023-08-26T11:20:40.427Z,96616.00
2023-08-26T11:23:08.700Z,96606.80
2023-08-26T11:25:37.489Z,96609.00
2023-08-26T11:28:07.411Z,96610.20
2023-08-26T11:30:43.108Z,96611.20
2023-08-26T11:33:16.622Z,96605.00
2023-08-26T11:35:58.675Z,96602.80
2023-08-26T11:38:38.533Z,96599.00
2023-08-26T11:41:07.697Z,96599.40
2023-08-26T11:43:36.002Z,96601.60
2023-08-26T11:46:06.595Z,96596.20
2023-08-26T11:48:36.597Z,96601.00
2023-08-26T11:51:05.006Z,96602.00
2023-08-26T11:53:35.666Z,96603.00
2023-08-26T11:56:03.702Z,96600.80
2023-08-26T11:58:33.386Z,96600.60
2023-08-26T12:01:01.644Z,96599.20
2023-08-26T12:03:31.555Z,96599.80
2023-08-26T12:06:00.510Z,96592.20
2023-08-26T12:08:29.435Z,96589.60
2023-08-26T12:10:58.617Z,96588.40
2023-08-26T12:13:43.868Z,96588.00
2023-08-26T12:16:14.228Z,96585.80
2023-08-26T12:18:42.835Z,96581.80
2023-08-26T12:21:10.854Z,96581.60
2023-08-26T12:23:39.744Z,96572.60
2023-08-26T12:26:13.144Z,96574.00
2023-08-26T12:28:41.618Z,96574.20
2023-08-26T12:31:09.999Z,96578.00
2023-08-26T12:33:53.831Z,96579.00
2023-08-26T12:36:26.627Z,96575.20
2023-08-26T12:38:55.295Z,96574.40
2023-08-26T12:41:23.341Z,96569.20
2023-08-26T12:43:52.848Z,96567.20
2023-08-26T12:46:21.117Z,96563.00
2023-08-26T12:48:54.962Z,96565.60
2023-08-26T12:51:24.782Z,96568.20
2023-08-26T12:53:53.156Z,96568.60
2023-08-26T12:56:22.141Z,96569.00
2023-08-26T12:58:50.778Z,96568.00
2023-08-26T13:01:19.696Z,96570.80
2023-08-26T13:03:47.799Z,96564.80
2023-08-26T13:06:15.836Z,96566.20
2023-08-26T13:08:44.087Z,96565.20
2023-08-26T13:11:12.139Z,96563.80
2023-08-26T13:13:40.305Z,96560.20
2023-08-26T13:16:11.419Z,96557.80
2023-08-26T13:18:44.439Z,96553.80
2023-08-26T13:21:13.241Z,96556.40
2023-08-26T13:23:44.006Z,96554.80
2023-08-26T13:26:12.004Z,96547.80
2023-08-26T13:28:40.302Z,96545.40
2023-08-26T13:31:08.425Z,96547.60
2023-08-26T13:33:36.799Z,96549.60
2023-08-26T13:36:04.868Z,96547.60
2023-08-26T13:38:32.862Z,96549.60
2023-08-26T13:41:01.124Z,96547.20
2023-08-26T13:43:29.057Z,96547.40
2023-08-26T13:45:57.467Z,96544.60
2023-08-26T13:48:25.666Z,96547.40
2023-08-26T13:50:54.108Z,96540.00
2023-08-26T13:53:22.204Z,96544.80
2023-08-26T13:55:56.525Z,96549.80
2023-08-26T13:58:27.727Z,96552.00
2023-08-26T14:00:59.062Z,96548.40
2023-08-26T14:03:27.756Z,96547.00
2023-08-26T14:05:55.934Z,96543.40
2023-08-26T14:08:24.479Z,96545.60
2023-08-26T14:10:54.475Z,96540.60
2023-08-26T14:13:22.545Z,96536.80
2023-08-26T14:15:50.666Z,96538.40
2023-08-26T14:18:18.937Z,96536.00
2023-08-26T14:20:47.441Z,96541.00
2023-08-26T14:23:15.691Z,96543.20
2023-08-26T14:25:44.148Z,96540.60
2023-08-26T14:28:12.217Z,96535.20
2023-08-26T14:30:40.273Z,96532.40
2023-08-26T14:33:08.416Z,96534.60
2023-08-26T14:35:36.626Z,96536.40
2023-08-26T14:38:04.853Z,96532.80
2023-08-26T14:40:33.206Z,96537.20
2023-08-26T14:43:01.309Z,96533.80
2023-08-26T14:45:29.461Z,96534.00
2023-08-26T14:47:58.098Z,96531.60
2023-08-26T14:50:26.382Z,96537.00
2023-08-26T14:52:54.760Z,96536.00
2023-08-26T14:55:23.452Z,96532.20
2023-08-26T14:57:51.596Z,96531.40
2023-08-26T15:00:19.780Z,96527.40
2023-08-26T15:02:47.909Z,96526.20
2023-08-26T15:05:15.956Z,96529.20
2023-08-26T15:07:44.878Z,96532.20
2023-08-26T15:10:13.867Z,96530.60
2023-08-26T15:12:45.535Z,96529.20
2023-08-26T15:15:13.716Z,96527.20
2023-08-26T15:17:41.728Z,96526.80
2023-08-26T15:20:10.085Z,96525.20
2023-08-26T15:22:38.240Z,96519.60
2023-08-26T15:25:07.344Z,96518.20
2023-08-26T15:27:35.452Z,96513.60
2023-08-26T15:30:04.956Z,96510.60
2023-08-26T15:32:33.170Z,96515.00
2023-08-26T15:35:01.163Z,96519.60
2023-08-26T15:37:29.335Z,96516.00
2023-08-26T15:39:57.420Z,96519.20
2023-08-26T15:42:26.250Z,96519.60
2023-08-26T15:44:54.455Z,96513.80
2023-08-26T15:47:22.851Z,96518.60
2023-08-26T15:49:50.983Z,96518.80
2023-08-26T15:52:19.065Z,96524.40
2023-08-26T15:54:47.187Z,96519.20
2023-08-26T15:57:18.341Z,96516.60
2023-08-26T15:59:46.535Z,96511.60
2023-08-26T16:02:14.796Z,96505.20
2023-08-26T16:04:42.756Z,96513.00
2023-08-26T16:07:11.465Z,96505.40
2023-08-26T16:09:40.610Z,96501.80
2023-08-26T16:12:08.534Z,96497.20
2023-08-26T16:14:36.751Z,96490.80
2023-08-26T16:17:05.005Z,96493.40
2023-08-26T16:19:33.010Z,96495.00
2023-08-26T16:22:01.088Z,96491.40
2023-08-26T16:24:29.206Z,96494.40
2023-08-26T16:26:57.521Z,96498.60
2023-08-26T16:29:25.775Z,96499.60
2023-08-26T16:31:53.875Z,96503.20
2023-08-26T16:34:22.259Z,96497.60
2023-08-26T16:36:50.412Z,96494.80
2023-08-26T16:39:18.420Z,96497.00
2023-08-26T16:41:46.468Z,96496.20
2023-08-26T16:44:14.554Z,96491.60
2023-08-26T16:46:42.614Z,96494.00
2023-08-26T16:49:10.883Z,96495.00
2023-08-26T16:51:39.259Z,96491.40
2023-08-26T16:54:07.209Z,96492.40
2023-08-26T16:56:35.273Z,96493.40
2023-08-26T16:59:03.261Z,96487.80
2023-08-26T17:01:31.240Z,96487.60
2023-08-26T17:03:59.574Z,96486.60
2023-08-26T17:06:27.665Z,96485.00
2023-08-26T17:08:56.034Z,96481.20
2023-08-26T17:11:24.273Z,96479.00
2023-08-26T17:13:52.230Z,96477.60
2023-08-26T17:16:20.293Z,96472.60
2023-08-26T17:18:48.303Z,96471.20
2023-08-26T17:21:16.497Z,96472.80
2023-08-26T17:23:44.617Z,96475.60
2023-08-26T17:26:12.622Z,96470.00
2023-08-26T17:28:40.753Z,96472.20
2023-08-26T17:31:08.838Z,96466.80
2023-08-26T17:33:37.087Z,96468.20
2023-08-26T17:36:05.790Z,96471.80
2023-08-26T17:38:33.778Z,96467.80
2023-08-26T17:41:01.828Z,96461.80
2023-08-26T17:43:29.998Z,96458.80
2023-08-26T17:45:58.153Z,96457.20
2023-08-26T17:48:27.650Z,96453.20
2023-08-26T17:50:55.804Z,96448.80
2023-08-26T17:53:25.465Z,96452.00
2023-08-26T17:55:54.352Z,96451.80
2023-08-26T17:58:22.359Z,96448.60
2023-08-26T18:00:50.634Z,96451.20
2023-08-26T18:03:19.276Z,96449.80
2023-08-26T18:05:47.519Z,96457.60
2023-08-26T18:08:15.593Z,96461.20
2023-08-26T18:10:43.555Z,96456.00
2023-08-26T18:13:11.993Z,96462.20
2023-08-26T18:15:42.611Z,96464.60
2023-08-26T18:18:10.600Z,96466.00
2023-08-26T18:20:39.072Z,96468.00
2023-08-26T18:23:07.224Z,96466.20
2023-08-26T18:25:35.480Z,96468.20
2023-08-26T18:28:03.616Z,96473.60
2023-08-26T18:30:31.877Z,96478.60
2023-08-26T18:33:00.132Z,96476.60
2023-08-26T18:35:28.492Z,96479.00
2023-08-26T18:37:56.706Z,96482.80
2023-08-26T18:40:26.498Z,96485.60
2023-08-26T18:42:55.877Z,96487.80
2023-08-26T18:45:24.141Z,96490.60
2023-08-26T18:47:52.196Z,96490.00
2023-08-26T18:50:20.332Z,96491.80
2023-08-26T18:52:48.456Z,96489.60
2023-08-26T18:55:16.903Z,96493.40
2023-08-26T18:57:45.596Z,96501.60
2023-08-26T19:00:13.965Z,96494.60
2023-08-26T19:02:42.878Z,96497.40
2023-08-26T19:05:11.161Z,96496.20
2023-08-26T19:07:39.250Z,96489.20
2023-08-26T19:10:07.864Z,96489.60
2023-08-26T19:12:37.808Z,96494.60
2023-08-26T19:15:07.663Z,96486.80
2023-08-26T19:17:35.714Z,96488.40
2023-08-26T19:20:04.436Z,96492.00
2023-08-26T19:22:32.412Z,96486.40
2023-08-26T19:25:00.711Z,96484.40
2023-08-26T19:27:28.896Z,96478.40
2023-08-26T19:29:56.965Z,96476.80
2023-08-26T19:32:24.925Z,96476.80
2023-08-26T19:34:52.902Z,96480.40
2023-08-26T19:37:20.913Z,96484.20
2023-08-26T19:39:49.154Z,96488.80
2023-08-26T19:42:17.181Z,96488.80
2023-08-26T19:44:45.166Z,96495.20
2023-08-26T19:47:13.671Z,96503.00
2023-08-26T19:49:41.654Z,96501.20
2023-08-26T19:52:09.605Z,96501.00
2023-08-26T19:54:38.089Z,96496.40
2023-08-26T19:57:08.242Z,96488.00
2023-08-26T19:59:36.210Z,96485.80
2023-08-26T20:02:04.869Z,96481.20
2023-08-26T20:04:33.150Z,96486.20
2023-08-26T20:07:01.123Z,96493.80
2023-08-26T20:09:29.030Z,96500.60
2023-08-26T20:11:57.002Z,96501.60
2023-08-26T20:14:25.350Z,96502.20
2023-08-26T20:16:53.510Z,96504.60
2023-08-26T20:19:21.732Z,96502.40
2023-08-26T20:21:56.356Z,96503.40
2023-08-26T20:24:26.434Z,96508.20
2023-08-26T20:26:54.489Z,96505.20
2023-08-26T20:29:23.143Z,96507.80
2023-08-26T20:31:52.173Z,96510.60
2023-08-26T20:34:20.321Z,96503.00
2023-08-26T20:36:49.368Z,96500.40
2023-08-26T20:39:17.829Z,96498.40
2023-08-26T20:41:46.101Z,96500.80
2023-08-26T20:44:14.677Z,96498.80
2023-08-26T20:46:42.696Z,96505.60
2023-08-26T20:49:10.932Z,96510.20
2023-08-26T20:51:39.025Z,96504.40
2023-08-26T20:54:07.385Z,96508.80
2023-08-26T20:56:36.172Z,96506.80
2023-08-26T20:59:04.227Z,96507.00
2023-08-26T21:01:32.477Z,96506.20
2023-08-26T21:04:01.651Z,96499.80
2023-08-26T21:06:29.733Z,96502.20
2023-08-26T21:08:57.722Z,96497.20
2023-08-26T21:11:26.071Z,96490.40
2023-08-26T21:13:54.217Z,96489.40
2023-08-26T21:16:23.629Z,96485.40
2023-08-26T21:18:51.912Z,96488.40
2023-08-26T21:21:20.187Z,96491.60
2023-08-26T21:23:49.181Z,96492.60
2023-08-26T21:26:17.455Z,96493.00
2023-08-26T21:28:45.569Z,96490.80
2023-08-26T21:31:16.202Z,96488.80
2023-08-26T21:33:44.620Z,96493.80
2023-08-26T21:36:13.140Z,96490.40
2023-08-26T21:38:41.296Z,96498.00
2023-08-26T21:41:09.221Z,96496.00
2023-08-26T21:43:37.230Z,96493.60
2023-08-26T21:46:05.301Z,96481.00
2023-08-26T21:48:33.209Z,96482.40
2023-08-26T21:51:08.019Z,96487.40
2023-08-26T21:53:36.196Z,96490.40
2023-08-26T21:56:04.639Z,96497.20
2023-08-26T21:58:32.650Z,96499.00
2023-08-26T22:01:00.971Z,96507.40
2023-08-26T22:03:29.131Z,96501.00
2023-08-26T22:05:57.343Z,96491.60
2023-08-26T22:08:25.446Z,96486.60
2023-08-26T22:10:53.893Z,96476.80
2023-08-26T22:13:22.237Z,96470.80
2023-08-26T22:15:52.211Z,96468.00
2023-08-26T22:18:20.483Z,96463.20
2023-08-26T22:20:48.742Z,96462.40
2023-08-26T22:23:16.820Z,96459.40
2023-08-26T22:25:44.833Z,96459.80
2023-08-26T22:28:12.957Z,96458.40
2023-08-26T22:30:42.209Z,96455.20
2023-08-26T22:33:10.540Z,96458.40
2023-08-26T22:35:38.658Z,96460.60
2023-08-26T22:38:06.866Z,96461.60
2023-08-26T22:40:35.095Z,96461.60
2023-08-26T22:43:03.849Z,96459.80
2023-08-26T22:45:33.179Z,96461.80
2023-08-26T22:48:01.232Z,96466.20
2023-08-26T22:50:29.337Z,96473.20
2023-08-26T22:52:58.294Z,96472.20
2023-08-26T22:55:26.869Z,96467.80
2023-08-26T22:57:54.989Z,96467.20
2023-08-26T23:00:23.732Z,96466.20
2023-08-26T23:02:51.715Z,96471.00
2023-08-26T23:05:19.899Z,96477.80
2023-08-26T23:07:48.003Z,96470.00
2023-08-26T23:10:16.321Z,96468.60
2023-08-26T23:12:44.274Z,96468.00
2023-08-26T23:15:12.708Z,96468.80
2023-08-26T23:17:40.989Z,96466.80
2023-08-26T23:20:10.928Z,96464.60
2023-08-26T23:22:39.137Z,96459.40
2023-08-26T23:25:07.638Z,96458.00
2023-08-26T23:27:36.431Z,96456.20
2023-08-26T23:30:06.037Z,96452.80
2023-08-26T23:32:34.521Z,96449.20
2023-08-26T23:35:06.379Z,96444.00
2023-08-26T23:37:34.538Z,96445.20
2023-08-26T23:40:06.100Z,96439.80
2023-08-26T23:42:34.351Z,96433.20
2023-08-26T23:45:02.271Z,96438.20
2023-08-26T23:47:30.344Z,96438.60
2023-08-26T23:50:00.797Z,96444.60
2023-08-26T23:52:29.566Z,96443.20
2023-08-26T23:54:57.796Z,96436.80
2023-08-26T23:57:27.100Z,96430.80
2023-08-26T23:59:55.301Z,96428.20
